createdAt,value
2023-03-28T00:00:17.483Z,100.00
2023-03-28T00:05:21.796Z,100.00
2023-03-28T00:10:25.111Z,100.00
2023-03-28T00:15:30.803Z,100.00
2023-03-28T00:20:33.844Z,100.00
2023-03-28T00:25:42.103Z,100.00
2023-03-28T00:30:46.977Z,100.00
2023-03-28T00:35:52.426Z,100.00
2023-03-28T00:40:57.977Z,100.00
2023-03-28T00:46:09.027Z,100.00
2023-03-28T00:51:15.005Z,100.00
2023-03-28T00:56:23.397Z,100.00
2023-03-28T01:01:28.465Z,100.00
2023-03-28T01:06:33.993Z,100.00
2023-03-28T01:11:41.673Z,100.00
2023-03-28T01:16:51.266Z,100.00
2023-03-28T01:22:17.015Z,100.00
2023-03-28T01:27:25.899Z,100.00
2023-03-28T01:33:07.881Z,100.00
2023-03-28T01:38:19.007Z,100.00
2023-03-28T01:43:35.850Z,100.00
2023-03-28T01:48:47.702Z,100.00
2023-03-28T01:54:00.769Z,100.00
2023-03-28T01:59:10.548Z,100.00
2023-03-28T02:04:35.328Z,100.00
2023-03-28T02:09:44.080Z,100.00
2023-03-28T02:15:04.948Z,100.00
2023-03-28T02:20:11.921Z,100.00
2023-03-28T02:25:46.142Z,100.00
2023-03-28T02:31:11.380Z,100.00
2023-03-28T02:36:31.225Z,100.00
2023-03-28T02:41:46.966Z,100.00
2023-03-28T02:47:01.198Z,100.00
2023-03-28T02:52:15.094Z,100.00
2023-03-28T02:57:28.278Z,100.00
2023-03-28T03:02:33.751Z,100.00
2023-03-28T03:07:37.690Z,100.00
2023-03-28T03:12:42.361Z,100.00
2023-03-28T03:17:45.799Z,100.00
2023-03-28T03:22:49.561Z,100.00
2023-03-28T03:27:53.984Z,100.00
2023-03-28T03:32:58.192Z,100.00
2023-03-28T03:38:03.027Z,100.00
2023-03-28T03:43:07.520Z,100.00
2023-03-28T03:48:12.103Z,100.00
2023-03-28T03:53:15.491Z,100.00
2023-03-28T03:58:29.885Z,100.00
2023-03-28T04:03:40.612Z,100.00
2023-03-28T04:08:43.828Z,100.00
2023-03-28T04:13:51.861Z,100.00
2023-03-28T04:18:54.948Z,100.00
2023-03-28T04:24:01.875Z,100.00
2023-03-28T04:29:18.628Z,100.00
2023-03-28T04:34:41.645Z,100.00
2023-03-28T04:39:49.168Z,100.00
2023-03-28T04:45:14.598Z,100.00
2023-03-28T04:50:19.868Z,100.00
2023-03-28T04:55:24.208Z,100.00
2023-03-28T05:00:29.496Z,100.00
2023-03-28T05:05:32.677Z,100.00
2023-03-28T05:10:35.913Z,100.00
2023-03-28T05:15:44.870Z,100.00
2023-03-28T05:21:06.348Z,100.00
2023-03-28T05:26:09.441Z,100.00
2023-03-28T05:31:17.551Z,100.00
2023-03-28T05:36:25.699Z,100.00
2023-03-28T05:41:28.925Z,100.00
2023-03-28T05:46:33.651Z,100.00
2023-03-28T05:51:36.811Z,100.00
2023-03-28T05:56:39.796Z,100.00
2023-03-28T06:01:46.682Z,100.00
2023-03-28T06:06:51.810Z,100.00
2023-03-28T06:12:01.155Z,100.00
2023-03-28T06:17:08.026Z,100.00
2023-03-28T06:22:22.976Z,100.00
2023-03-28T06:27:31.544Z,100.00
2023-03-28T06:32:36.799Z,100.00
2023-03-28T06:37:40.073Z,100.00
2023-03-28T06:42:44.424Z,100.00
2023-03-28T06:47:57.584Z,100.00
2023-03-28T06:53:21.180Z,100.00
2023-03-28T06:58:24.966Z,100.00
2023-03-28T07:03:36.748Z,100.00
2023-03-28T07:08:41.526Z,100.00
2023-03-28T07:13:47.085Z,100.00
2023-03-28T07:18:51.971Z,100.00
2023-03-28T07:23:58.741Z,100.00
2023-03-28T07:29:05.667Z,100.00
2023-03-28T07:34:10.635Z,100.00
2023-03-28T07:39:14.343Z,100.00
2023-03-28T07:44:17.624Z,100.00
2023-03-28T07:49:22.174Z,100.00
2023-03-28T07:54:26.621Z,100.00
2023-03-28T07:59:31.029Z,100.00
2023-03-28T08:04:37.055Z,99.91
2023-03-28T08:09:42.975Z,99.35
2023-03-28T08:14:53.429Z,97.75
2023-03-28T08:20:00.826Z,97.55
2023-03-28T08:25:04.179Z,97.88
2023-03-28T08:30:08.871Z,97.91
2023-03-28T08:35:20.194Z,96.61
2023-03-28T08:40:30.067Z,94.19
2023-03-28T08:45:50.750Z,92.80
2023-03-28T08:51:06.010Z,89.56
2023-03-28T08:56:10.999Z,89.04
2023-03-28T09:01:14.697Z,87.68
2023-03-28T09:06:28.277Z,87.59
2023-03-28T09:11:46.249Z,86.46
2023-03-28T09:17:02.987Z,84.17
2023-03-28T09:22:20.081Z,83.94
2023-03-28T09:27:33.601Z,82.17
2023-03-28T09:32:42.687Z,83.68
2023-03-28T09:37:52.273Z,80.67
2023-03-28T09:43:06.021Z,81.72
2023-03-28T09:48:29.809Z,79.30
2023-03-28T09:53:39.016Z,79.28
2023-03-28T09:58:52.278Z,78.17
2023-03-28T10:04:01.294Z,79.08
2023-03-28T10:09:27.165Z,75.63
2023-03-28T10:14:39.658Z,77.36
2023-03-28T10:19:52.500Z,77.35
2023-03-28T10:25:01.045Z,78.31
2023-03-28T10:30:17.285Z,77.83
2023-03-28T10:35:26.568Z,78.82
2023-03-28T10:41:02.363Z,75.06
2023-03-28T10:46:30.422Z,77.97
2023-03-28T10:51:53.780Z,77.42
2023-03-28T10:57:02.442Z,77.04
2023-03-28T11:02:39.910Z,75.36
2023-03-28T11:08:01.195Z,78.10
2023-03-28T11:13:35.471Z,77.57
2023-03-28T11:18:59.007Z,76.72
2023-03-28T11:24:30.366Z,74.79
2023-03-28T11:29:56.014Z,73.35
2023-03-28T11:35:14.919Z,70.50
2023-03-28T11:40:26.535Z,75.22
2023-03-28T11:45:50.170Z,73.43
2023-03-28T11:51:06.676Z,69.94
2023-03-28T11:56:38.455Z,70.22
2023-03-28T12:01:54.921Z,67.26
2023-03-28T12:07:10.432Z,64.30
2023-03-28T12:12:25.531Z,70.40
2023-03-28T12:17:33.909Z,70.55
2023-03-28T12:22:43.962Z,66.89
2023-03-28T12:28:01.134Z,63.42
2023-03-28T12:33:20.298Z,66.09
2023-03-28T12:38:42.510Z,66.72
2023-03-28T12:44:08.729Z,68.94
2023-03-28T12:49:28.636Z,69.44
2023-03-28T12:54:38.711Z,74.14
2023-03-28T13:00:06.482Z,72.68
2023-03-28T13:18:36.167Z,76.33
2023-03-28T13:23:51.030Z,75.83
2023-03-28T13:29:00.958Z,75.90
2023-03-28T13:34:05.482Z,74.14
2023-03-28T13:39:23.520Z,74.91
2023-03-28T13:44:33.179Z,78.07
2023-03-28T13:49:44.846Z,79.42
2023-03-28T13:54:54.547Z,78.97
2023-03-28T13:59:59.948Z,75.53
2023-03-28T14:05:16.225Z,78.01
2023-03-28T14:10:30.800Z,74.24
2023-03-28T14:15:39.385Z,76.16
2023-03-28T14:20:45.693Z,76.56
2023-03-28T14:25:50.128Z,78.71
2023-03-28T14:30:53.347Z,78.87
2023-03-28T14:36:03.191Z,80.42
2023-03-28T14:41:26.664Z,78.46
2023-03-28T14:46:33.075Z,76.71
2023-03-28T14:51:46.787Z,78.11
2023-03-28T14:56:53.877Z,81.11
2023-03-28T15:01:57.453Z,81.49
2023-03-28T15:07:03.169Z,81.85
2023-03-28T15:12:09.227Z,81.49
2023-03-28T15:17:19.023Z,80.83
2023-03-28T15:22:27.557Z,82.11
2023-03-28T15:27:33.754Z,83.56
2023-03-28T15:32:37.294Z,85.01
2023-03-28T15:37:46.131Z,85.09
2023-03-28T15:42:53.260Z,84.98
2023-03-28T15:47:57.062Z,83.26
2023-03-28T15:53:05.699Z,83.35
2023-03-28T15:58:14.128Z,85.91
2023-03-28T16:03:35.551Z,86.28
2023-03-28T16:08:43.395Z,85.67
2023-03-28T16:13:46.584Z,86.93
2023-03-28T16:19:14.741Z,85.29
2023-03-28T16:24:21.975Z,87.45
2023-03-28T16:29:25.178Z,87.71
2023-03-28T16:34:28.355Z,88.40
2023-03-28T16:39:33.296Z,88.02
2023-03-28T16:44:38.237Z,88.78
2023-03-28T16:49:41.983Z,89.25
2023-03-28T16:54:50.883Z,89.75
2023-03-28T16:59:56.032Z,90.00
2023-03-28T17:04:59.282Z,90.78
2023-03-28T17:10:04.370Z,92.13
2023-03-28T17:15:09.590Z,92.38
2023-03-28T17:20:19.697Z,92.13
2023-03-28T17:25:24.204Z,92.44
2023-03-28T17:30:28.446Z,92.57
2023-03-28T17:35:31.932Z,93.20
2023-03-28T17:40:39.596Z,93.64
2023-03-28T17:45:42.868Z,94.55
2023-03-28T17:50:55.554Z,95.47
2023-03-28T17:56:00.707Z,95.54
2023-03-28T18:01:04.279Z,95.05
2023-03-28T18:06:08.737Z,94.94
2023-03-28T18:11:15.506Z,95.17
2023-03-28T18:16:19.243Z,95.34
2023-03-28T18:21:22.466Z,96.27
2023-03-28T18:26:28.873Z,97.33
2023-03-28T18:31:32.813Z,97.89
2023-03-28T18:36:37.238Z,99.00
2023-03-28T18:41:41.698Z,99.50
2023-03-28T18:46:44.810Z,99.41
2023-03-28T18:51:50.476Z,99.28
2023-03-28T18:56:55.253Z,99.12
2023-03-28T19:01:59.660Z,98.68
2023-03-28T19:07:03.497Z,98.08
2023-03-28T19:12:08.554Z,98.11
2023-03-28T19:17:12.363Z,98.24
2023-03-28T19:22:15.500Z,98.40
2023-03-28T19:27:20.156Z,99.32
2023-03-28T19:32:23.488Z,99.58
2023-03-28T19:37:26.668Z,99.70
2023-03-28T19:42:31.185Z,99.69
2023-03-28T19:47:34.458Z,99.77
2023-03-28T19:52:38.287Z,99.70
2023-03-28T19:57:46.181Z,99.88
2023-03-28T20:02:55.951Z,100.00
2023-03-28T20:07:59.174Z,99.76
2023-03-28T20:13:03.682Z,99.77
2023-03-28T20:18:11.169Z,100.00
2023-03-28T20:23:14.433Z,100.00
2023-03-28T20:28:21.039Z,100.00
2023-03-28T20:33:24.529Z,100.00
2023-03-28T20:38:27.860Z,100.00
2023-03-28T20:43:36.865Z,100.00
2023-03-28T20:48:40.183Z,100.00
2023-03-28T20:53:44.573Z,100.00
2023-03-28T20:58:53.363Z,100.00
2023-03-28T21:04:00.332Z,100.00
2023-03-28T21:09:05.567Z,100.00
2023-03-28T21:14:12.933Z,100.00
2023-03-28T21:19:16.172Z,100.00
2023-03-28T21:24:21.070Z,100.00
2023-03-28T21:29:25.658Z,100.00
2023-03-28T21:34:34.422Z,100.00
2023-03-28T21:39:37.805Z,100.00
2023-03-28T21:44:42.446Z,100.00
2023-03-28T21:49:46.196Z,100.00
2023-03-28T21:54:51.608Z,100.00
2023-03-28T21:59:56.077Z,100.00
2023-03-28T22:04:59.400Z,100.00
2023-03-28T22:10:05.415Z,100.00
2023-03-28T22:15:13.835Z,100.00
2023-03-28T22:20:18.589Z,100.00
2023-03-28T22:25:22.811Z,100.00
2023-03-28T22:30:27.775Z,100.00
2023-03-28T22:35:34.034Z,100.00
2023-03-28T22:40:37.757Z,100.00
2023-03-28T22:45:43.005Z,100.00
2023-03-28T22:50:47.262Z,100.00
2023-03-28T22:55:52.040Z,100.00
2023-03-28T23:00:56.568Z,100.00
2023-03-28T23:06:03.064Z,100.00
2023-03-28T23:11:06.959Z,99.90
2023-03-28T23:16:11.663Z,99.96
2023-03-28T23:21:14.731Z,99.50
2023-03-28T23:26:17.947Z,99.65
2023-03-28T23:31:22.909Z,100.00
2023-03-28T23:36:26.227Z,100.00
2023-03-28T23:41:29.385Z,99.87
2023-03-28T23:46:33.813Z,100.00
2023-03-28T23:51:38.851Z,100.00
2023-03-28T23:56:44.526Z,100.00
